sensor_id;sensor_type;location;lat;lon;timestamp;pressure;altitude;pressure_sealevel;temperature;humidity
48810;BME280;40070;47.322;18.784;2023-03-18T00:00:45;1007.72;;;4.52;48.39
48810;BME280;40070;47.322;18.784;2023-03-18T00:02:46;1007.69;;;4.61;47.33
48810;BME280;40070;47.322;18.784;2023-03-18T00:04:47;1007.66;;;4.50;47.19
48810;BME280;40070;47.322;18.784;2023-03-18T00:06:48;1007.68;;;4.52;46.92
48810;BME280;40070;47.322;18.784;2023-03-18T00:08:49;1007.66;;;4.47;47.08
48810;BME280;40070;47.322;18.784;2023-03-18T00:10:50;1007.62;;;4.53;47.59
48810;BME280;40070;47.322;18.784;2023-03-18T00:12:51;1007.59;;;4.50;47.83
48810;BME280;40070;47.322;18.784;2023-03-18T00:14:52;1007.55;;;4.46;48.12
48810;BME280;40070;47.322;18.784;2023-03-18T00:16:53;1007.52;;;4.52;47.46
48810;BME280;40070;47.322;18.784;2023-03-18T00:18:54;1007.48;;;4.57;47.46
48810;BME280;40070;47.322;18.784;2023-03-18T00:20:55;1007.49;;;4.53;47.40
48810;BME280;40070;47.322;18.784;2023-03-18T00:22:56;1007.48;;;4.44;46.95
48810;BME280;40070;47.322;18.784;2023-03-18T00:24:57;1007.48;;;4.49;46.72
48810;BME280;40070;47.322;18.784;2023-03-18T00:26:58;1007.45;;;4.42;47.74
48810;BME280;40070;47.322;18.784;2023-03-18T00:28:58;1007.47;;;4.41;48.33
48810;BME280;40070;47.322;18.784;2023-03-18T00:31:06;1007.51;;;4.33;48.44
48810;BME280;40070;47.322;18.784;2023-03-18T00:33:08;1007.46;;;4.59;47.60
48810;BME280;40070;47.322;18.784;2023-03-18T00:35:09;1007.48;;;4.62;47.12
48810;BME280;40070;47.322;18.784;2023-03-18T00:37:10;1007.47;;;4.53;47.25
48810;BME280;40070;47.322;18.784;2023-03-18T00:39:11;1007.44;;;4.46;47.40
48810;BME280;40070;47.322;18.784;2023-03-18T00:41:12;1007.43;;;4.21;47.68
48810;BME280;40070;47.322;18.784;2023-03-18T00:43:13;1007.39;;;4.33;47.55
48810;BME280;40070;47.322;18.784;2023-03-18T00:45:15;1007.41;;;4.50;47.28
48810;BME280;40070;47.322;18.784;2023-03-18T00:47:16;1007.46;;;4.49;47.09
48810;BME280;40070;47.322;18.784;2023-03-18T00:49:18;1007.43;;;4.48;46.83
48810;BME280;40070;47.322;18.784;2023-03-18T00:51:19;1007.43;;;4.69;46.68
48810;BME280;40070;47.322;18.784;2023-03-18T00:53:21;1007.40;;;4.31;47.01
48810;BME280;40070;47.322;18.784;2023-03-18T00:55:22;1007.42;;;4.41;47.04
48810;BME280;40070;47.322;18.784;2023-03-18T00:57:23;1007.40;;;4.41;47.78
48810;BME280;40070;47.322;18.784;2023-03-18T00:59:23;1007.39;;;4.48;48.46
48810;BME280;40070;47.322;18.784;2023-03-18T01:01:24;1007.37;;;4.35;49.03
48810;BME280;40070;47.322;18.784;2023-03-18T01:03:26;1007.32;;;4.37;48.87
48810;BME280;40070;47.322;18.784;2023-03-18T01:05:27;1007.28;;;4.63;47.86
48810;BME280;40070;47.322;18.784;2023-03-18T01:07:28;1007.29;;;4.63;47.42
48810;BME280;40070;47.322;18.784;2023-03-18T01:09:30;1007.28;;;4.55;47.34
48810;BME280;40070;47.322;18.784;2023-03-18T01:11:31;1007.27;;;4.61;47.20
48810;BME280;40070;47.322;18.784;2023-03-18T01:13:33;1007.23;;;4.60;47.22
48810;BME280;40070;47.322;18.784;2023-03-18T01:15:34;1007.20;;;4.62;47.38
48810;BME280;40070;47.322;18.784;2023-03-18T01:17:35;1007.18;;;4.60;47.39
48810;BME280;40070;47.322;18.784;2023-03-18T01:19:37;1007.14;;;4.67;46.86
48810;BME280;40070;47.322;18.784;2023-03-18T01:21:39;1007.10;;;4.60;47.09
48810;BME280;40070;47.322;18.784;2023-03-18T01:23:40;1007.11;;;4.54;46.70
48810;BME280;40070;47.322;18.784;2023-03-18T01:25:41;1007.07;;;4.52;46.46
48810;BME280;40070;47.322;18.784;2023-03-18T01:27:42;1007.04;;;4.51;46.48
48810;BME280;40070;47.322;18.784;2023-03-18T01:29:43;1007.01;;;4.52;46.22
48810;BME280;40070;47.322;18.784;2023-03-18T01:31:44;1007.01;;;4.27;47.40
48810;BME280;40070;47.322;18.784;2023-03-18T01:33:45;1007.00;;;4.39;46.98
48810;BME280;40070;47.322;18.784;2023-03-18T01:35:51;1006.90;;;4.50;46.41
48810;BME280;40070;47.322;18.784;2023-03-18T01:37:52;1006.90;;;4.21;46.33
48810;BME280;40070;47.322;18.784;2023-03-18T01:39:53;1006.92;;;4.22;46.59
48810;BME280;40070;47.322;18.784;2023-03-18T01:41:56;1006.93;;;4.41;46.55
48810;BME280;40070;47.322;18.784;2023-03-18T01:43:57;1006.92;;;4.40;46.73
48810;BME280;40070;47.322;18.784;2023-03-18T01:45:58;1006.89;;;4.49;46.34
48810;BME280;40070;47.322;18.784;2023-03-18T01:47:59;1006.87;;;4.53;45.99
48810;BME280;40070;47.322;18.784;2023-03-18T01:50:00;1006.89;;;4.55;45.92
48810;BME280;40070;47.322;18.784;2023-03-18T01:52:03;1006.84;;;4.45;46.26
48810;BME280;40070;47.322;18.784;2023-03-18T01:54:05;1006.86;;;4.45;46.07
48810;BME280;40070;47.322;18.784;2023-03-18T01:56:06;1006.88;;;4.31;46.71
48810;BME280;40070;47.322;18.784;2023-03-18T01:58:27;1006.88;;;4.34;46.61
48810;BME280;40070;47.322;18.784;2023-03-18T02:00:24;1006.92;;;4.26;46.69
48810;BME280;40070;47.322;18.784;2023-03-18T02:02:25;1006.92;;;4.22;46.61
48810;BME280;40070;47.322;18.784;2023-03-18T02:04:28;1006.95;;;4.13;47.11
48810;BME280;40070;47.322;18.784;2023-03-18T02:06:30;1006.94;;;4.06;47.65
48810;BME280;40070;47.322;18.784;2023-03-18T02:08:31;1006.92;;;4.10;47.47
48810;BME280;40070;47.322;18.784;2023-03-18T02:10:32;1006.96;;;4.16;47.63
48810;BME280;40070;47.322;18.784;2023-03-18T02:12:34;1006.97;;;4.09;47.96
48810;BME280;40070;47.322;18.784;2023-03-18T02:14:35;1006.93;;;4.20;47.74
48810;BME280;40070;47.322;18.784;2023-03-18T02:16:39;1006.92;;;4.14;47.46
48810;BME280;40070;47.322;18.784;2023-03-18T02:18:43;1006.95;;;4.06;47.70
48810;BME280;40070;47.322;18.784;2023-03-18T02:23:11;1006.98;;;4.02;48.42
48810;BME280;40070;47.322;18.784;2023-03-18T02:25:38;1006.97;;;4.12;47.79
48810;BME280;40070;47.322;18.784;2023-03-18T02:27:43;1006.96;;;4.12;47.88
48810;BME280;40070;47.322;18.784;2023-03-18T02:29:45;1006.97;;;4.06;48.06
48810;BME280;40070;47.322;18.784;2023-03-18T02:31:46;1006.95;;;4.08;48.22
48810;BME280;40070;47.322;18.784;2023-03-18T02:33:48;1006.93;;;4.11;48.05
48810;BME280;40070;47.322;18.784;2023-03-18T02:35:51;1006.95;;;4.21;47.36
48810;BME280;40070;47.322;18.784;2023-03-18T02:37:52;1006.96;;;4.09;48.09
48810;BME280;40070;47.322;18.784;2023-03-18T02:39:53;1006.99;;;4.16;47.92
48810;BME280;40070;47.322;18.784;2023-03-18T02:41:54;1006.97;;;4.16;48.04
48810;BME280;40070;47.322;18.784;2023-03-18T02:43:55;1006.95;;;4.14;47.69
48810;BME280;40070;47.322;18.784;2023-03-18T02:48:10;1006.96;;;4.00;48.20
48810;BME280;40070;47.322;18.784;2023-03-18T02:50:12;1006.96;;;3.93;48.27
48810;BME280;40070;47.322;18.784;2023-03-18T02:52:13;1006.88;;;3.90;48.10
48810;BME280;40070;47.322;18.784;2023-03-18T02:54:15;1006.89;;;3.87;47.95
48810;BME280;40070;47.322;18.784;2023-03-18T02:56:16;1006.87;;;3.95;47.44
48810;BME280;40070;47.322;18.784;2023-03-18T02:58:17;1006.87;;;3.95;47.48
48810;BME280;40070;47.322;18.784;2023-03-18T03:00:19;1006.86;;;4.03;47.23
48810;BME280;40070;47.322;18.784;2023-03-18T03:02:20;1006.84;;;3.97;47.34
48810;BME280;40070;47.322;18.784;2023-03-18T03:04:22;1006.87;;;4.01;47.82
48810;BME280;40070;47.322;18.784;2023-03-18T03:06:23;1006.84;;;3.91;47.97
48810;BME280;40070;47.322;18.784;2023-03-18T03:08:24;1006.85;;;3.83;48.43
48810;BME280;40070;47.322;18.784;2023-03-18T03:10:25;1006.85;;;3.90;48.15
48810;BME280;40070;47.322;18.784;2023-03-18T03:12:26;1006.82;;;3.82;48.01
48810;BME280;40070;47.322;18.784;2023-03-18T03:14:27;1006.83;;;3.72;48.49
48810;BME280;40070;47.322;18.784;2023-03-18T03:16:28;1006.83;;;3.58;48.57
48810;BME280;40070;47.322;18.784;2023-03-18T03:18:29;1006.85;;;3.56;48.67
48810;BME280;40070;47.322;18.784;2023-03-18T03:20:30;1006.89;;;3.59;48.81
48810;BME280;40070;47.322;18.784;2023-03-18T03:22:32;1006.92;;;3.73;48.70
48810;BME280;40070;47.322;18.784;2023-03-18T03:24:33;1006.92;;;3.72;48.50
48810;BME280;40070;47.322;18.784;2023-03-18T03:26:34;1006.95;;;3.67;48.64
48810;BME280;40070;47.322;18.784;2023-03-18T03:28:35;1007.04;;;3.62;48.56
48810;BME280;40070;47.322;18.784;2023-03-18T03:30:36;1007.05;;;3.66;48.43
48810;BME280;40070;47.322;18.784;2023-03-18T03:32:37;1007.01;;;3.71;47.86
48810;BME280;40070;47.322;18.784;2023-03-18T03:34:38;1007.05;;;3.69;47.72
48810;BME280;40070;47.322;18.784;2023-03-18T03:36:39;1007.04;;;3.53;47.48
48810;BME280;40070;47.322;18.784;2023-03-18T03:38:40;1007.12;;;3.66;47.66
48810;BME280;40070;47.322;18.784;2023-03-18T03:40:41;1007.06;;;3.68;47.48
48810;BME280;40070;47.322;18.784;2023-03-18T03:42:42;1007.08;;;3.67;47.62
48810;BME280;40070;47.322;18.784;2023-03-18T03:44:43;1007.04;;;3.57;47.62
48810;BME280;40070;47.322;18.784;2023-03-18T03:46:44;1007.05;;;3.56;47.54
48810;BME280;40070;47.322;18.784;2023-03-18T03:48:45;1007.03;;;3.42;47.11
48810;BME280;40070;47.322;18.784;2023-03-18T03:50:46;1007.05;;;3.31;47.16
48810;BME280;40070;47.322;18.784;2023-03-18T03:52:49;1007.08;;;3.22;47.46
48810;BME280;40070;47.322;18.784;2023-03-18T03:54:50;1007.11;;;3.09;47.98
48810;BME280;40070;47.322;18.784;2023-03-18T03:56:51;1007.11;;;3.16;48.42
48810;BME280;40070;47.322;18.784;2023-03-18T03:58:52;1007.09;;;3.31;48.15
48810;BME280;40070;47.322;18.784;2023-03-18T04:00:53;1007.13;;;3.20;48.40
48810;BME280;40070;47.322;18.784;2023-03-18T04:02:54;1007.08;;;3.24;48.38
48810;BME280;40070;47.322;18.784;2023-03-18T04:04:55;1007.14;;;3.23;48.36
48810;BME280;40070;47.322;18.784;2023-03-18T04:06:55;1007.11;;;3.26;48.17
48810;BME280;40070;47.322;18.784;2023-03-18T04:08:56;1007.14;;;3.19;48.14
48810;BME280;40070;47.322;18.784;2023-03-18T04:10:57;1007.11;;;3.29;47.91
48810;BME280;40070;47.322;18.784;2023-03-18T04:12:58;1007.12;;;3.14;48.58
48810;BME280;40070;47.322;18.784;2023-03-18T04:14:59;1007.15;;;3.07;48.45
48810;BME280;40070;47.322;18.784;2023-03-18T04:17:00;1007.16;;;3.16;48.59
48810;BME280;40070;47.322;18.784;2023-03-18T04:19:01;1007.22;;;3.26;48.52
48810;BME280;40070;47.322;18.784;2023-03-18T04:21:02;1007.21;;;3.28;48.73
48810;BME280;40070;47.322;18.784;2023-03-18T04:23:03;1007.24;;;3.33;48.65
48810;BME280;40070;47.322;18.784;2023-03-18T04:25:05;1007.19;;;3.31;48.41
48810;BME280;40070;47.322;18.784;2023-03-18T04:27:06;1007.22;;;3.27;48.34
48810;BME280;40070;47.322;18.784;2023-03-18T04:29:06;1007.22;;;3.37;47.45
48810;BME280;40070;47.322;18.784;2023-03-18T04:31:07;1007.27;;;3.24;48.08
48810;BME280;40070;47.322;18.784;2023-03-18T04:33:08;1007.22;;;3.29;48.16
48810;BME280;40070;47.322;18.784;2023-03-18T04:35:09;1007.26;;;3.23;48.05
48810;BME280;40070;47.322;18.784;2023-03-18T04:37:10;1007.31;;;3.18;48.31
48810;BME280;40070;47.322;18.784;2023-03-18T04:39:11;1007.31;;;3.16;48.54
48810;BME280;40070;47.322;18.784;2023-03-18T04:41:12;1007.34;;;3.23;48.40
48810;BME280;40070;47.322;18.784;2023-03-18T04:43:13;1007.38;;;3.26;48.56
48810;BME280;40070;47.322;18.784;2023-03-18T04:45:14;1007.36;;;3.26;48.84
48810;BME280;40070;47.322;18.784;2023-03-18T04:47:15;1007.37;;;3.26;48.92
48810;BME280;40070;47.322;18.784;2023-03-18T04:49:16;1007.37;;;3.27;48.87
48810;BME280;40070;47.322;18.784;2023-03-18T04:51:17;1007.36;;;3.30;48.73
48810;BME280;40070;47.322;18.784;2023-03-18T04:53:18;1007.35;;;3.27;48.66
48810;BME280;40070;47.322;18.784;2023-03-18T04:55:19;1007.38;;;3.25;48.95
48810;BME280;40070;47.322;18.784;2023-03-18T04:57:20;1007.36;;;3.21;49.10
48810;BME280;40070;47.322;18.784;2023-03-18T04:59:21;1007.42;;;3.16;49.35
48810;BME280;40070;47.322;18.784;2023-03-18T05:01:22;1007.41;;;3.22;49.39
48810;BME280;40070;47.322;18.784;2023-03-18T05:03:23;1007.44;;;3.19;49.33
48810;BME280;40070;47.322;18.784;2023-03-18T05:05:23;1007.45;;;3.14;49.35
48810;BME280;40070;47.322;18.784;2023-03-18T05:07:24;1007.45;;;3.26;48.75
48810;BME280;40070;47.322;18.784;2023-03-18T05:09:25;1007.48;;;3.22;49.24
48810;BME280;40070;47.322;18.784;2023-03-18T05:11:26;1007.51;;;3.21;49.08
48810;BME280;40070;47.322;18.784;2023-03-18T05:13:27;1007.50;;;3.19;49.31
48810;BME280;40070;47.322;18.784;2023-03-18T05:15:28;1007.51;;;3.37;48.56
48810;BME280;40070;47.322;18.784;2023-03-18T05:17:29;1007.47;;;3.23;48.68
48810;BME280;40070;47.322;18.784;2023-03-18T05:19:30;1007.53;;;2.86;49.11
48810;BME280;40070;47.322;18.784;2023-03-18T05:21:31;1007.52;;;3.13;48.91
48810;BME280;40070;47.322;18.784;2023-03-18T05:23:32;1007.54;;;3.37;48.74
48810;BME280;40070;47.322;18.784;2023-03-18T05:25:33;1007.56;;;3.29;48.64
48810;BME280;40070;47.322;18.784;2023-03-18T05:27:34;1007.56;;;3.37;48.55
48810;BME280;40070;47.322;18.784;2023-03-18T05:29:35;1007.57;;;3.08;48.74
48810;BME280;40070;47.322;18.784;2023-03-18T05:31:36;1007.59;;;3.00;49.15
48810;BME280;40070;47.322;18.784;2023-03-18T05:33:37;1007.62;;;3.29;48.54
48810;BME280;40070;47.322;18.784;2023-03-18T05:35:39;1007.64;;;3.39;48.83
48810;BME280;40070;47.322;18.784;2023-03-18T05:37:40;1007.64;;;3.42;48.96
48810;BME280;40070;47.322;18.784;2023-03-18T05:39:41;1007.65;;;3.53;48.74
48810;BME280;40070;47.322;18.784;2023-03-18T05:41:42;1007.67;;;3.40;48.81
48810;BME280;40070;47.322;18.784;2023-03-18T05:43:43;1007.64;;;3.58;49.10
48810;BME280;40070;47.322;18.784;2023-03-18T05:45:44;1007.64;;;3.79;48.83
48810;BME280;40070;47.322;18.784;2023-03-18T05:47:45;1007.72;;;3.84;48.36
48810;BME280;40070;47.322;18.784;2023-03-18T05:49:46;1007.67;;;3.91;48.41
48810;BME280;40070;47.322;18.784;2023-03-18T05:51:47;1007.75;;;3.88;48.48
48810;BME280;40070;47.322;18.784;2023-03-18T05:53:48;1007.70;;;3.97;48.40
48810;BME280;40070;47.322;18.784;2023-03-18T05:55:49;1007.70;;;4.06;48.57
48810;BME280;40070;47.322;18.784;2023-03-18T05:57:50;1007.69;;;4.25;48.47
48810;BME280;40070;47.322;18.784;2023-03-18T05:59:51;1007.77;;;4.14;48.54
48810;BME280;40070;47.322;18.784;2023-03-18T06:01:52;1007.69;;;4.16;48.70
48810;BME280;40070;47.322;18.784;2023-03-18T06:03:53;1007.71;;;4.10;48.43
48810;BME280;40070;47.322;18.784;2023-03-18T06:05:54;1007.72;;;3.92;48.72
48810;BME280;40070;47.322;18.784;2023-03-18T06:07:55;1007.80;;;4.11;48.57
48810;BME280;40070;47.322;18.784;2023-03-18T06:09:56;1007.78;;;4.17;48.73
48810;BME280;40070;47.322;18.784;2023-03-18T06:11:57;1007.82;;;4.05;48.89
48810;BME280;40070;47.322;18.784;2023-03-18T06:13:58;1007.80;;;4.21;48.80
48810;BME280;40070;47.322;18.784;2023-03-18T06:15:59;1007.83;;;4.08;48.81
48810;BME280;40070;47.322;18.784;2023-03-18T06:18:00;1007.80;;;3.99;49.35
48810;BME280;40070;47.322;18.784;2023-03-18T06:20:01;1007.84;;;4.17;49.14
48810;BME280;40070;47.322;18.784;2023-03-18T06:22:03;1007.83;;;4.31;48.78
48810;BME280;40070;47.322;18.784;2023-03-18T06:24:04;1007.87;;;4.24;49.00
48810;BME280;40070;47.322;18.784;2023-03-18T06:26:05;1007.94;;;4.15;49.01
48810;BME280;40070;47.322;18.784;2023-03-18T06:28:06;1007.93;;;4.08;49.46
48810;BME280;40070;47.322;18.784;2023-03-18T06:30:07;1007.92;;;4.47;48.49
48810;BME280;40070;47.322;18.784;2023-03-18T06:32:09;1007.91;;;4.41;48.40
48810;BME280;40070;47.322;18.784;2023-03-18T06:34:10;1007.96;;;4.38;48.69
48810;BME280;40070;47.322;18.784;2023-03-18T06:36:11;1007.99;;;4.32;48.90
48810;BME280;40070;47.322;18.784;2023-03-18T06:38:12;1008.01;;;4.64;48.41
48810;BME280;40070;47.322;18.784;2023-03-18T06:40:13;1008.01;;;4.68;48.76
48810;BME280;40070;47.322;18.784;2023-03-18T06:42:14;1007.99;;;4.44;48.68
48810;BME280;40070;47.322;18.784;2023-03-18T06:44:15;1008.03;;;4.39;49.08
48810;BME280;40070;47.322;18.784;2023-03-18T06:46:16;1008.04;;;4.76;48.67
48810;BME280;40070;47.322;18.784;2023-03-18T06:48:17;1008.04;;;4.65;48.61
48810;BME280;40070;47.322;18.784;2023-03-18T06:50:18;1007.98;;;4.73;48.53
48810;BME280;40070;47.322;18.784;2023-03-18T06:52:19;1008.03;;;5.10;47.63
48810;BME280;40070;47.322;18.784;2023-03-18T06:54:20;1008.10;;;4.99;48.00
48810;BME280;40070;47.322;18.784;2023-03-18T06:56:21;1008.06;;;5.07;48.15
48810;BME280;40070;47.322;18.784;2023-03-18T06:58:22;1008.10;;;4.99;48.75
48810;BME280;40070;47.322;18.784;2023-03-18T07:00:23;1008.05;;;5.34;48.12
48810;BME280;40070;47.322;18.784;2023-03-18T07:02:24;1008.04;;;5.37;47.80
48810;BME280;40070;47.322;18.784;2023-03-18T07:04:25;1008.01;;;5.54;47.19
48810;BME280;40070;47.322;18.784;2023-03-18T07:06:26;1008.03;;;5.52;47.32
48810;BME280;40070;47.322;18.784;2023-03-18T07:08:27;1008.05;;;5.75;47.57
48810;BME280;40070;47.322;18.784;2023-03-18T07:10:28;1008.01;;;5.88;47.26
48810;BME280;40070;47.322;18.784;2023-03-18T07:12:29;1008.02;;;6.10;46.76
48810;BME280;40070;47.322;18.784;2023-03-18T07:14:30;1007.97;;;6.52;46.00
48810;BME280;40070;47.322;18.784;2023-03-18T07:16:31;1007.97;;;6.45;45.60
48810;BME280;40070;47.322;18.784;2023-03-18T07:18:32;1007.99;;;6.37;46.13
48810;BME280;40070;47.322;18.784;2023-03-18T07:20:33;1008.01;;;6.25;45.99
48810;BME280;40070;47.322;18.784;2023-03-18T07:22:34;1007.98;;;6.51;46.03
48810;BME280;40070;47.322;18.784;2023-03-18T07:24:35;1008.01;;;6.61;45.70
48810;BME280;40070;47.322;18.784;2023-03-18T07:26:36;1008.03;;;6.83;45.51
48810;BME280;40070;47.322;18.784;2023-03-18T07:28:37;1008.10;;;6.91;45.37
48810;BME280;40070;47.322;18.784;2023-03-18T07:30:38;1008.08;;;7.20;44.69
48810;BME280;40070;47.322;18.784;2023-03-18T07:32:39;1008.05;;;7.33;44.56
48810;BME280;40070;47.322;18.784;2023-03-18T07:34:40;1008.11;;;7.36;44.33
48810;BME280;40070;47.322;18.784;2023-03-18T07:36:41;1008.07;;;7.78;43.80
48810;BME280;40070;47.322;18.784;2023-03-18T07:38:42;1008.12;;;7.91;43.85
48810;BME280;40070;47.322;18.784;2023-03-18T07:40:43;1008.19;;;7.82;42.76
48810;BME280;40070;47.322;18.784;2023-03-18T07:42:44;1008.13;;;7.88;43.29
48810;BME280;40070;47.322;18.784;2023-03-18T07:44:44;1008.14;;;7.96;43.35
48810;BME280;40070;47.322;18.784;2023-03-18T07:46:45;1008.15;;;8.15;42.79
48810;BME280;40070;47.322;18.784;2023-03-18T07:48:46;1008.12;;;8.44;42.08
48810;BME280;40070;47.322;18.784;2023-03-18T07:50:47;1008.14;;;8.29;42.33
48810;BME280;40070;47.322;18.784;2023-03-18T07:52:48;1008.07;;;8.49;42.48
48810;BME280;40070;47.322;18.784;2023-03-18T07:54:49;1008.11;;;8.37;42.01
48810;BME280;40070;47.322;18.784;2023-03-18T07:56:50;1008.08;;;8.53;41.80
48810;BME280;40070;47.322;18.784;2023-03-18T07:58:51;1008.12;;;8.68;41.53
48810;BME280;40070;47.322;18.784;2023-03-18T08:00:52;1008.08;;;8.71;41.48
48810;BME280;40070;47.322;18.784;2023-03-18T08:02:53;1008.16;;;9.01;41.35
48810;BME280;40070;47.322;18.784;2023-03-18T08:04:54;1008.11;;;8.97;41.55
48810;BME280;40070;47.322;18.784;2023-03-18T08:06:55;1008.10;;;9.29;40.43
48810;BME280;40070;47.322;18.784;2023-03-18T08:08:56;1008.14;;;9.44;40.40
48810;BME280;40070;47.322;18.784;2023-03-18T08:10:57;1008.10;;;9.56;40.12
48810;BME280;40070;47.322;18.784;2023-03-18T08:12:58;1008.10;;;9.57;39.60
48810;BME280;40070;47.322;18.784;2023-03-18T08:14:59;1008.10;;;9.51;40.32
48810;BME280;40070;47.322;18.784;2023-03-18T08:17:00;1008.15;;;9.55;39.66
48810;BME280;40070;47.322;18.784;2023-03-18T08:19:01;1008.11;;;9.64;39.74
48810;BME280;40070;47.322;18.784;2023-03-18T08:21:02;1008.15;;;9.75;40.15
48810;BME280;40070;47.322;18.784;2023-03-18T08:23:03;1008.16;;;9.89;39.53
48810;BME280;40070;47.322;18.784;2023-03-18T08:25:04;1008.12;;;10.15;38.69
48810;BME280;40070;47.322;18.784;2023-03-18T08:27:05;1008.14;;;10.36;38.87
48810;BME280;40070;47.322;18.784;2023-03-18T08:29:06;1008.10;;;10.48;38.03
48810;BME280;40070;47.322;18.784;2023-03-18T08:31:07;1008.06;;;10.77;37.82
48810;BME280;40070;47.322;18.784;2023-03-18T08:33:08;1008.13;;;10.98;36.79
48810;BME280;40070;47.322;18.784;2023-03-18T08:35:10;1008.10;;;11.24;35.92
48810;BME280;40070;47.322;18.784;2023-03-18T08:37:11;1008.05;;;11.31;36.23
48810;BME280;40070;47.322;18.784;2023-03-18T08:39:12;1008.00;;;11.37;35.89
48810;BME280;40070;47.322;18.784;2023-03-18T08:41:13;1008.06;;;11.25;36.41
48810;BME280;40070;47.322;18.784;2023-03-18T08:43:13;1008.01;;;11.01;36.12
48810;BME280;40070;47.322;18.784;2023-03-18T08:45:14;1008.01;;;11.13;35.42
48810;BME280;40070;47.322;18.784;2023-03-18T08:47:15;1007.99;;;11.21;35.85
48810;BME280;40070;47.322;18.784;2023-03-18T08:49:16;1008.01;;;11.07;36.00
48810;BME280;40070;47.322;18.784;2023-03-18T08:51:17;1008.01;;;11.49;35.76
48810;BME280;40070;47.322;18.784;2023-03-18T08:53:18;1007.98;;;11.45;35.63
48810;BME280;40070;47.322;18.784;2023-03-18T08:55:19;1008.03;;;11.74;35.75
48810;BME280;40070;47.322;18.784;2023-03-18T08:57:20;1008.01;;;11.86;34.28
48810;BME280;40070;47.322;18.784;2023-03-18T08:59:21;1007.97;;;11.91;33.69
48810;BME280;40070;47.322;18.784;2023-03-18T09:01:22;1008.01;;;12.04;32.75
48810;BME280;40070;47.322;18.784;2023-03-18T09:03:23;1007.93;;;12.00;32.45
48810;BME280;40070;47.322;18.784;2023-03-18T09:05:24;1007.97;;;12.07;33.07
48810;BME280;40070;47.322;18.784;2023-03-18T09:07:25;1007.92;;;12.28;33.39
48810;BME280;40070;47.322;18.784;2023-03-18T09:09:26;1007.88;;;12.37;33.21
48810;BME280;40070;47.322;18.784;2023-03-18T09:11:27;1007.90;;;12.49;33.00
48810;BME280;40070;47.322;18.784;2023-03-18T09:13:27;1007.90;;;12.60;32.79
48810;BME280;40070;47.322;18.784;2023-03-18T09:15:28;1007.89;;;12.45;33.08
48810;BME280;40070;47.322;18.784;2023-03-18T09:17:29;1007.91;;;12.77;33.39
48810;BME280;40070;47.322;18.784;2023-03-18T09:19:30;1007.86;;;12.68;33.40
48810;BME280;40070;47.322;18.784;2023-03-18T09:21:31;1007.82;;;12.60;33.65
48810;BME280;40070;47.322;18.784;2023-03-18T09:23:33;1007.82;;;12.82;33.44
48810;BME280;40070;47.322;18.784;2023-03-18T09:25:34;1007.84;;;13.01;34.03
48810;BME280;40070;47.322;18.784;2023-03-18T09:27:35;1007.84;;;12.95;33.33
48810;BME280;40070;47.322;18.784;2023-03-18T09:29:36;1007.69;;;13.18;33.12
48810;BME280;40070;47.322;18.784;2023-03-18T09:31:37;1007.71;;;13.23;33.22
48810;BME280;40070;47.322;18.784;2023-03-18T09:33:38;1007.75;;;13.42;33.08
48810;BME280;40070;47.322;18.784;2023-03-18T09:35:39;1007.67;;;13.35;33.62
48810;BME280;40070;47.322;18.784;2023-03-18T09:37:40;1007.73;;;13.68;33.11
48810;BME280;40070;47.322;18.784;2023-03-18T09:39:41;1007.66;;;13.30;33.60
48810;BME280;40070;47.322;18.784;2023-03-18T09:41:45;1007.63;;;13.43;33.82
48810;BME280;40070;47.322;18.784;2023-03-18T09:48:43;1007.70;;;13.89;33.57
48810;BME280;40070;47.322;18.784;2023-03-18T09:50:52;1007.64;;;13.80;34.05
48810;BME280;40070;47.322;18.784;2023-03-18T09:53:04;1007.64;;;14.08;33.91
48810;BME280;40070;47.322;18.784;2023-03-18T09:55:18;1007.67;;;14.18;34.06
48810;BME280;40070;47.322;18.784;2023-03-18T09:57:22;1007.57;;;14.18;33.39
48810;BME280;40070;47.322;18.784;2023-03-18T09:59:36;1007.56;;;14.02;34.11
48810;BME280;40070;47.322;18.784;2023-03-18T10:01:36;1007.61;;;14.74;33.55
48810;BME280;40070;47.322;18.784;2023-03-18T10:03:40;1007.52;;;14.31;33.40
48810;BME280;40070;47.322;18.784;2023-03-18T10:05:45;1007.50;;;14.32;33.58
48810;BME280;40070;47.322;18.784;2023-03-18T10:07:49;1007.59;;;14.54;33.62
48810;BME280;40070;47.322;18.784;2023-03-18T10:09:53;1007.54;;;14.64;33.15
48810;BME280;40070;47.322;18.784;2023-03-18T10:11:58;1007.48;;;14.72;33.21
48810;BME280;40070;47.322;18.784;2023-03-18T10:14:17;1007.46;;;14.83;33.09
48810;BME280;40070;47.322;18.784;2023-03-18T10:16:21;1007.43;;;14.87;32.65
48810;BME280;40070;47.322;18.784;2023-03-18T10:18:32;1007.48;;;15.16;32.59
48810;BME280;40070;47.322;18.784;2023-03-18T10:22:59;1007.44;;;15.42;33.10
48810;BME280;40070;47.322;18.784;2023-03-18T10:25:08;1007.36;;;15.24;32.31
48810;BME280;40070;47.322;18.784;2023-03-18T10:29:30;1007.33;;;15.36;31.65
48810;BME280;40070;47.322;18.784;2023-03-18T10:31:40;1007.34;;;15.00;31.83
48810;BME280;40070;47.322;18.784;2023-03-18T10:33:55;1007.35;;;15.03;32.67
48810;BME280;40070;47.322;18.784;2023-03-18T10:38:23;1007.28;;;14.82;32.84
48810;BME280;40070;47.322;18.784;2023-03-18T10:40:25;1007.23;;;15.09;33.47
48810;BME280;40070;47.322;18.784;2023-03-18T10:42:27;1007.23;;;15.51;33.24
48810;BME280;40070;47.322;18.784;2023-03-18T10:44:34;1007.28;;;15.16;32.12
48810;BME280;40070;47.322;18.784;2023-03-18T10:46:37;1007.24;;;15.52;31.86
48810;BME280;40070;47.322;18.784;2023-03-18T10:48:41;1007.23;;;15.91;31.53
48810;BME280;40070;47.322;18.784;2023-03-18T10:50:49;1007.14;;;16.06;31.29
48810;BME280;40070;47.322;18.784;2023-03-18T10:52:53;1007.13;;;15.87;31.23
48810;BME280;40070;47.322;18.784;2023-03-18T10:54:57;1007.17;;;15.58;30.43
48810;BME280;40070;47.322;18.784;2023-03-18T10:56:57;1007.16;;;15.64;30.58
48810;BME280;40070;47.322;18.784;2023-03-18T10:58:58;1007.13;;;15.72;31.04
48810;BME280;40070;47.322;18.784;2023-03-18T11:00:59;1007.03;;;15.98;30.82
48810;BME280;40070;47.322;18.784;2023-03-18T11:03:00;1007.04;;;16.31;30.49
48810;BME280;40070;47.322;18.784;2023-03-18T11:05:04;1007.01;;;16.56;29.88
48810;BME280;40070;47.322;18.784;2023-03-18T11:07:17;1006.96;;;16.71;29.71